createdAt,value
2019-01-31T00:02:29.014Z,-0.90
2019-01-31T00:05:12.264Z,-0.90
2019-01-31T00:07:52.650Z,-0.90
2019-01-31T00:10:32.939Z,-0.80
2019-01-31T00:13:22.998Z,-0.80
2019-01-31T00:16:18.332Z,-0.80
2019-01-31T00:19:13.902Z,-0.80
2019-01-31T00:21:57.635Z,-0.80
2019-01-31T00:24:31.940Z,-0.80
2019-01-31T00:27:12.410Z,-0.80
2019-01-31T00:30:04.359Z,-0.90
2019-01-31T00:32:52.712Z,-0.80
2019-01-31T00:35:42.146Z,-0.80
2019-01-31T00:38:25.761Z,-0.80
2019-01-31T00:41:15.031Z,-0.80
2019-01-31T00:44:10.380Z,-0.80
2019-01-31T00:46:44.556Z,-0.90
2019-01-31T00:49:21.815Z,-0.80
2019-01-31T00:52:05.085Z,-0.90
2019-01-31T00:54:48.227Z,-0.90
2019-01-31T00:57:36.385Z,-0.80
2019-01-31T01:00:16.897Z,-0.90
2019-01-31T01:03:16.416Z,-0.90
2019-01-31T01:05:47.950Z,-0.90
2019-01-31T01:08:28.672Z,-0.80
2019-01-31T01:11:09.081Z,-0.80
2019-01-31T01:13:43.203Z,-0.80
2019-01-31T01:16:26.093Z,-0.90
2019-01-31T01:19:03.287Z,-0.70
2019-01-31T01:21:43.392Z,-0.70
2019-01-31T01:24:34.333Z,-0.80
2019-01-31T01:27:14.964Z,-0.70
2019-01-31T01:29:52.483Z,-0.80
2019-01-31T01:32:42.211Z,-0.80
2019-01-31T01:35:22.670Z,-0.80
2019-01-31T01:37:56.691Z,-0.90
2019-01-31T01:40:28.239Z,-0.90
2019-01-31T01:43:14.782Z,-0.90
2019-01-31T01:46:04.101Z,-0.90
2019-01-31T01:48:44.466Z,-0.80
2019-01-31T01:51:18.579Z,-0.80
2019-01-31T01:54:01.799Z,-0.80
2019-01-31T01:56:33.512Z,-0.80
2019-01-31T01:59:17.379Z,-0.70
2019-01-31T02:02:04.231Z,-0.70
2019-01-31T02:04:44.442Z,-0.70
2019-01-31T02:07:18.581Z,-0.70
2019-01-31T02:10:10.956Z,-0.70
2019-01-31T02:12:51.150Z,-0.60
2019-01-31T02:15:34.499Z,-0.60
2019-01-31T02:18:06.008Z,-0.50
2019-01-31T02:21:03.324Z,-0.50
2019-01-31T02:24:11.879Z,-0.60
2019-01-31T02:27:02.987Z,-0.50
2019-01-31T02:29:43.561Z,-0.50
2019-01-31T02:32:41.532Z,-0.50
2019-01-31T02:35:18.864Z,-0.50
2019-01-31T02:38:05.402Z,-0.60
2019-01-31T02:40:39.687Z,-0.50
2019-01-31T02:43:17.702Z,-0.50
2019-01-31T02:46:05.975Z,-0.50
2019-01-31T02:48:40.227Z,-0.60
2019-01-31T02:51:28.160Z,-0.60
2019-01-31T02:54:14.722Z,-0.50
2019-01-31T02:56:49.317Z,-0.50
2019-01-31T02:59:32.167Z,-0.50
2019-01-31T03:02:12.543Z,-0.50
2019-01-31T03:04:53.091Z,-0.50
2019-01-31T03:07:27.411Z,-0.60
2019-01-31T03:10:04.908Z,-0.60
2019-01-31T03:12:57.449Z,-0.50
2019-01-31T03:15:38.189Z,-0.50
2019-01-31T03:18:09.726Z,-0.50
2019-01-31T03:20:41.244Z,-0.50
2019-01-31T03:23:15.384Z,-0.50
2019-01-31T03:26:04.944Z,-0.50
2019-01-31T03:28:54.152Z,-0.50
2019-01-31T03:31:31.734Z,-0.40
2019-01-31T03:34:18.176Z,-0.40
2019-01-31T03:37:07.931Z,-0.40
2019-01-31T03:40:07.139Z,-0.30
2019-01-31T03:42:50.373Z,-0.30
2019-01-31T03:45:33.848Z,-0.20
2019-01-31T03:48:22.334Z,-0.20
2019-01-31T03:51:09.022Z,-0.20
2019-01-31T03:53:57.295Z,-0.30
2019-01-31T03:56:34.527Z,-0.30
2019-01-31T03:59:09.012Z,-0.30
2019-01-31T04:01:49.186Z,-0.20
2019-01-31T04:04:35.997Z,-0.20
2019-01-31T04:07:04.439Z,-0.10
2019-01-31T04:09:32.708Z,-0.30
2019-01-31T04:12:00.971Z,-0.30
2019-01-31T04:14:29.233Z,-0.30
2019-01-31T04:16:57.506Z,-0.30
2019-01-31T04:19:25.805Z,-0.30
2019-01-31T04:21:54.071Z,-0.30
2019-01-31T04:24:22.355Z,-0.20
2019-01-31T04:26:50.648Z,-0.20
2019-01-31T04:29:18.933Z,-0.20
2019-01-31T04:31:47.191Z,-0.20
2019-01-31T04:34:16.391Z,-0.30
2019-01-31T04:36:44.637Z,-0.30
2019-01-31T04:39:12.923Z,-0.20
2019-01-31T04:41:41.215Z,-0.20
2019-01-31T04:44:09.526Z,-0.30
2019-01-31T04:46:38.463Z,-0.30
2019-01-31T04:49:06.735Z,-0.30
2019-01-31T04:51:34.999Z,-0.20
2019-01-31T04:54:03.329Z,-0.20
2019-01-31T04:56:31.608Z,-0.20
2019-01-31T04:59:00.257Z,-0.20
2019-01-31T05:01:28.580Z,-0.10
2019-01-31T05:03:57.100Z,-0.20
2019-01-31T05:06:25.395Z,-0.30
2019-01-31T05:08:53.672Z,-0.30
2019-01-31T05:11:21.916Z,-0.20
2019-01-31T05:13:50.190Z,-0.20
2019-01-31T05:16:18.457Z,-0.20
2019-01-31T05:18:46.734Z,-0.20
2019-01-31T05:21:14.992Z,-0.20
2019-01-31T05:23:43.240Z,-0.20
2019-01-31T05:26:11.510Z,-0.20
2019-01-31T05:28:39.761Z,-0.30
2019-01-31T05:31:08.048Z,-0.30
2019-01-31T05:33:36.371Z,-0.30
2019-01-31T05:36:04.648Z,-0.30
2019-01-31T05:38:32.911Z,-0.30
2019-01-31T05:41:01.200Z,-0.30
2019-01-31T05:43:29.453Z,-0.40
2019-01-31T05:45:57.709Z,-0.40
2019-01-31T05:48:25.959Z,-0.50
2019-01-31T05:50:54.230Z,-0.50
2019-01-31T05:53:22.500Z,-0.60
2019-01-31T05:55:50.778Z,-0.70
2019-01-31T05:58:19.047Z,-0.70
2019-01-31T06:00:47.312Z,-0.60
2019-01-31T06:03:16.565Z,-0.60
2019-01-31T06:05:44.893Z,-0.70
2019-01-31T06:08:13.141Z,-0.80
2019-01-31T06:10:41.430Z,-0.90
2019-01-31T06:13:09.691Z,-0.80
2019-01-31T06:15:38.043Z,-0.80
2019-01-31T06:18:06.415Z,-0.90
2019-01-31T06:20:34.676Z,-0.90
2019-01-31T06:23:02.951Z,-0.90
2019-01-31T06:25:31.565Z,-1.00
2019-01-31T06:27:59.823Z,-1.00
2019-01-31T06:30:28.118Z,-1.00
2019-01-31T06:32:56.394Z,-0.90
2019-01-31T06:35:24.735Z,-0.90
2019-01-31T06:37:53.003Z,-1.00
2019-01-31T06:40:21.783Z,-1.00
2019-01-31T06:42:50.038Z,-1.00
2019-01-31T06:45:20.140Z,-0.90
2019-01-31T06:47:48.401Z,-0.90
2019-01-31T06:50:16.779Z,-0.90
2019-01-31T06:52:45.032Z,-0.90
2019-01-31T06:55:13.316Z,-1.00
2019-01-31T06:57:41.559Z,-0.90
2019-01-31T07:00:18.783Z,-0.90
2019-01-31T07:02:47.055Z,-0.80
2019-01-31T07:05:15.314Z,-0.80
2019-01-31T07:07:43.571Z,-0.80
2019-01-31T07:10:22.570Z,-0.80
2019-01-31T07:12:50.836Z,-0.70
2019-01-31T07:15:19.142Z,-0.70
2019-01-31T07:17:47.461Z,-0.60
2019-01-31T07:20:17.064Z,-0.60
2019-01-31T07:22:45.328Z,-0.50
2019-01-31T07:25:19.011Z,-0.50
2019-01-31T07:27:47.271Z,-0.50
2019-01-31T07:30:17.483Z,-0.50
2019-01-31T07:32:45.754Z,-0.30
2019-01-31T07:35:14.564Z,-0.20
2019-01-31T07:37:42.814Z,0.10
2019-01-31T07:40:22.027Z,0.50
2019-01-31T07:42:50.666Z,0.70
2019-01-31T07:45:21.887Z,0.80
2019-01-31T07:47:50.154Z,1.00
2019-01-31T07:50:18.995Z,0.80
2019-01-31T07:52:47.236Z,0.90
2019-01-31T07:55:15.520Z,0.90
2019-01-31T07:57:43.783Z,0.70
2019-01-31T08:00:16.999Z,0.80
2019-01-31T08:02:45.250Z,0.80
2019-01-31T08:05:15.926Z,0.70
2019-01-31T08:07:44.172Z,0.70
2019-01-31T08:10:20.715Z,0.70
2019-01-31T08:12:48.967Z,0.70
2019-01-31T08:15:18.579Z,0.70
2019-01-31T08:17:46.967Z,0.80
2019-01-31T08:20:19.727Z,0.80
2019-01-31T08:22:47.969Z,1.00
2019-01-31T08:25:19.503Z,1.20
2019-01-31T08:27:47.835Z,1.30
2019-01-31T08:30:22.559Z,1.50
2019-01-31T08:32:50.800Z,1.80
2019-01-31T08:35:19.067Z,2.10
2019-01-31T08:37:47.339Z,2.10
2019-01-31T08:40:15.611Z,2.10
2019-01-31T08:42:43.879Z,2.20
2019-01-31T08:45:13.456Z,2.20
2019-01-31T08:48:01.149Z,2.40
2019-01-31T08:50:32.375Z,2.50
2019-01-31T08:53:00.739Z,2.40
2019-01-31T08:55:29.019Z,2.40
2019-01-31T08:57:57.257Z,2.40
2019-01-31T09:00:28.772Z,2.30
2019-01-31T09:02:57.027Z,2.50
2019-01-31T09:05:25.291Z,2.60
2019-01-31T09:07:53.577Z,2.60
2019-01-31T09:10:26.841Z,2.40
2019-01-31T09:12:55.177Z,2.50
2019-01-31T09:15:24.862Z,2.80
2019-01-31T09:17:53.131Z,2.80
2019-01-31T09:20:27.267Z,2.70
2019-01-31T09:23:05.036Z,2.90
2019-01-31T09:25:51.597Z,3.00
2019-01-31T09:28:35.156Z,3.10
2019-01-31T09:31:23.099Z,3.20
2019-01-31T09:33:57.341Z,3.30
2019-01-31T09:36:52.816Z,3.40
2019-01-31T09:39:29.852Z,3.80
2019-01-31T09:42:26.253Z,3.90
2019-01-31T09:44:53.193Z,4.10
2019-01-31T09:47:27.411Z,4.40
2019-01-31T09:50:01.817Z,4.50
2019-01-31T09:52:49.863Z,4.80
2019-01-31T09:55:27.112Z,4.70
2019-01-31T09:57:58.640Z,4.50
2019-01-31T10:00:32.803Z,4.40
2019-01-31T10:03:18.867Z,4.50
2019-01-31T10:05:53.387Z,4.60
2019-01-31T10:08:30.815Z,4.70
2019-01-31T10:11:20.306Z,4.90
2019-01-31T10:13:54.419Z,5.50
2019-01-31T10:16:31.950Z,6.60
2019-01-31T10:19:36.473Z,7.50
2019-01-31T10:22:26.120Z,7.50
2019-01-31T10:25:09.419Z,7.00
2019-01-31T10:27:58.772Z,7.00
2019-01-31T10:30:47.935Z,8.20
2019-01-31T10:33:31.292Z,8.60
2019-01-31T10:36:23.245Z,7.80
2019-01-31T10:38:57.225Z,7.60
2019-01-31T10:41:45.543Z,7.50
2019-01-31T10:44:29.012Z,7.10
2019-01-31T10:47:17.023Z,7.70
2019-01-31T10:50:08.206Z,7.80
2019-01-31T10:52:48.251Z,7.60
2019-01-31T10:55:39.722Z,7.70
2019-01-31T10:58:11.249Z,7.80
2019-01-31T11:00:48.756Z,8.10
2019-01-31T11:03:32.202Z,7.70
2019-01-31T11:06:12.700Z,6.80
2019-01-31T11:08:49.819Z,6.90
2019-01-31T11:11:21.344Z,6.90
2019-01-31T11:14:05.171Z,7.00
2019-01-31T11:16:54.191Z,6.50
2019-01-31T11:19:40.616Z,6.50
2019-01-31T11:22:28.815Z,6.90
2019-01-31T11:25:12.436Z,7.20
2019-01-31T11:28:06.745Z,7.00
2019-01-31T11:30:41.098Z,7.90
2019-01-31T11:33:21.217Z,8.20
2019-01-31T11:36:07.350Z,8.60
2019-01-31T11:38:44.561Z,8.80
2019-01-31T11:41:22.063Z,8.50
2019-01-31T11:43:56.315Z,8.40
2019-01-31T11:46:48.575Z,7.80
2019-01-31T11:49:29.660Z,6.90
2019-01-31T11:52:20.244Z,7.00
2019-01-31T11:55:00.512Z,7.00
2019-01-31T11:57:50.103Z,7.40
2019-01-31T12:00:19.984Z,7.40
2019-01-31T12:02:54.704Z,7.00
2019-01-31T12:05:18.248Z,7.20
2019-01-31T12:07:47.418Z,7.20
2019-01-31T12:10:15.652Z,7.70
2019-01-31T12:12:44.030Z,7.30
2019-01-31T12:15:12.355Z,7.00
2019-01-31T12:17:40.615Z,6.80
2019-01-31T12:20:13.540Z,6.80
2019-01-31T12:22:42.122Z,7.20
2019-01-31T12:25:10.385Z,8.00
2019-01-31T12:27:38.738Z,8.90
2019-01-31T12:30:10.419Z,8.70
2019-01-31T12:32:38.682Z,9.60
2019-01-31T12:35:06.944Z,9.90
2019-01-31T12:37:35.215Z,9.10
2019-01-31T12:40:04.720Z,8.60
2019-01-31T12:42:33.009Z,9.50
2019-01-31T12:45:01.335Z,10.10
2019-01-31T12:47:29.619Z,10.20
2019-01-31T12:49:57.876Z,9.60
2019-01-31T12:52:26.159Z,10.00
2019-01-31T12:54:54.415Z,10.40
2019-01-31T12:57:22.681Z,11.40
2019-01-31T12:59:50.943Z,11.10
2019-01-31T13:02:19.220Z,10.90
2019-01-31T13:04:47.759Z,11.20
2019-01-31T13:07:16.035Z,11.80
2019-01-31T13:09:44.295Z,11.30
2019-01-31T13:12:12.580Z,10.60
2019-01-31T13:14:40.836Z,10.20
2019-01-31T13:17:09.096Z,10.00
2019-01-31T13:19:37.352Z,9.60
2019-01-31T13:22:05.608Z,8.90
2019-01-31T13:24:33.879Z,8.10
2019-01-31T13:27:02.116Z,7.80
2019-01-31T13:29:30.408Z,7.50
2019-01-31T13:31:58.656Z,7.00
2019-01-31T13:34:26.933Z,7.00
2019-01-31T13:36:55.229Z,6.60
2019-01-31T13:39:23.576Z,6.50
2019-01-31T13:41:51.831Z,6.20
2019-01-31T13:44:20.097Z,5.90
2019-01-31T13:46:48.351Z,5.90
2019-01-31T13:49:18.040Z,5.60
2019-01-31T13:51:46.471Z,5.50
2019-01-31T13:54:14.744Z,5.30
2019-01-31T13:56:45.764Z,5.10
2019-01-31T13:59:12.971Z,5.10
2019-01-31T14:01:41.223Z,5.10
2019-01-31T14:04:09.535Z,5.00
2019-01-31T14:06:37.839Z,4.90
2019-01-31T14:09:07.704Z,5.00
2019-01-31T14:11:35.944Z,4.80
2019-01-31T14:14:09.305Z,4.80
2019-01-31T14:16:34.260Z,4.80
2019-01-31T14:19:02.544Z,4.80
2019-01-31T14:21:30.832Z,4.80
2019-01-31T14:23:59.101Z,4.90
2019-01-31T14:26:27.340Z,4.80
2019-01-31T14:28:55.596Z,4.80
2019-01-31T14:31:23.855Z,4.80
2019-01-31T14:33:52.113Z,4.60
2019-01-31T14:36:20.442Z,4.40
2019-01-31T14:38:48.719Z,4.40
2019-01-31T14:41:18.191Z,4.30
2019-01-31T14:43:46.462Z,4.10
2019-01-31T14:46:14.715Z,4.10
2019-01-31T14:48:43.091Z,4.00
2019-01-31T14:51:11.347Z,4.00
2019-01-31T14:53:39.631Z,4.20
2019-01-31T14:56:07.887Z,4.20
2019-01-31T14:58:36.144Z,4.50
2019-01-31T15:01:04.404Z,4.80
2019-01-31T15:03:32.714Z,4.90
2019-01-31T15:06:01.007Z,4.90
2019-01-31T15:08:29.303Z,4.90
2019-01-31T15:10:57.579Z,4.80
2019-01-31T15:13:25.822Z,4.50
2019-01-31T15:15:54.108Z,4.40
2019-01-31T15:18:22.413Z,4.00
2019-01-31T15:20:50.682Z,3.80
2019-01-31T15:23:18.938Z,3.60
2019-01-31T15:25:48.020Z,3.50
2019-01-31T15:28:16.274Z,3.60
2019-01-31T15:30:44.551Z,3.50
2019-01-31T15:33:12.815Z,3.30
2019-01-31T15:35:41.161Z,3.20
2019-01-31T15:38:09.419Z,3.00
2019-01-31T15:40:42.981Z,3.00
2019-01-31T15:43:11.241Z,2.90
2019-01-31T15:45:39.507Z,2.70
2019-01-31T15:48:10.592Z,2.60
2019-01-31T15:50:38.487Z,2.60
2019-01-31T15:53:06.744Z,2.50
2019-01-31T15:55:35.079Z,2.60
2019-01-31T15:58:03.340Z,2.50
2019-01-31T16:00:41.869Z,2.40
2019-01-31T16:03:11.960Z,2.30
2019-01-31T16:05:40.235Z,2.20
2019-01-31T16:08:08.922Z,2.20
2019-01-31T16:10:37.188Z,2.10
2019-01-31T16:13:05.650Z,2.00
2019-01-31T16:15:34.307Z,2.00
2019-01-31T16:18:02.608Z,1.90
2019-01-31T16:20:30.883Z,1.70
2019-01-31T16:22:59.139Z,1.50
2019-01-31T16:25:27.487Z,1.30
2019-01-31T16:27:55.814Z,1.10
2019-01-31T16:30:24.160Z,1.00
2019-01-31T16:32:52.425Z,0.90
2019-01-31T16:35:20.755Z,0.80
2019-01-31T16:37:49.948Z,0.70
2019-01-31T16:40:18.759Z,0.60
2019-01-31T16:42:47.018Z,0.50
2019-01-31T16:45:16.224Z,0.50
2019-01-31T16:47:44.476Z,0.40
2019-01-31T16:50:15.989Z,0.40
2019-01-31T16:52:44.312Z,0.30
2019-01-31T16:55:14.640Z,0.30
2019-01-31T16:57:42.955Z,0.30
2019-01-31T17:00:22.799Z,0.20
2019-01-31T17:02:51.077Z,0.10
2019-01-31T17:05:21.355Z,0.10
2019-01-31T17:07:49.696Z,0.00
2019-01-31T17:10:18.337Z,-0.10
2019-01-31T17:12:46.773Z,0.00
2019-01-31T17:15:18.160Z,0.00
2019-01-31T17:17:46.413Z,0.10
2019-01-31T17:20:20.895Z,0.10
2019-01-31T17:22:49.152Z,0.10
2019-01-31T17:25:18.613Z,0.10
2019-01-31T17:27:47.088Z,0.10
2019-01-31T17:30:22.728Z,0.00
2019-01-31T17:32:51.054Z,0.00
2019-01-31T17:35:19.329Z,0.00
2019-01-31T17:37:48.322Z,0.00
2019-01-31T17:40:25.098Z,0.10
2019-01-31T17:42:53.354Z,0.20
2019-01-31T17:45:30.062Z,0.30
2019-01-31T17:47:51.714Z,0.40
2019-01-31T17:50:20.059Z,0.40
2019-01-31T17:52:48.323Z,0.40
2019-01-31T17:55:18.939Z,0.30
2019-01-31T17:57:47.184Z,0.30
2019-01-31T18:00:24.327Z,0.20
2019-01-31T18:02:51.684Z,0.10
2019-01-31T18:05:19.957Z,0.10
2019-01-31T18:07:48.388Z,-0.10
2019-01-31T18:10:19.359Z,-0.10
2019-01-31T18:12:48.388Z,-0.10
2019-01-31T18:15:16.676Z,-0.10
2019-01-31T18:17:44.946Z,-0.20
2019-01-31T18:20:16.085Z,-0.20
2019-01-31T18:22:44.363Z,-0.30
2019-01-31T18:25:12.627Z,-0.30
2019-01-31T18:27:40.919Z,-0.40
2019-01-31T18:30:21.041Z,-0.60
2019-01-31T18:32:49.321Z,-0.50
2019-01-31T18:35:18.549Z,-0.50
2019-01-31T18:37:46.888Z,-0.50
2019-01-31T18:40:25.905Z,-0.50
2019-01-31T18:42:54.237Z,-0.50
2019-01-31T18:45:24.448Z,-0.60
2019-01-31T18:47:52.719Z,-0.60
2019-01-31T18:50:23.227Z,-0.80
2019-01-31T18:52:51.509Z,-0.80
2019-01-31T18:55:19.868Z,-0.80
2019-01-31T18:57:48.499Z,-0.80
2019-01-31T19:00:21.659Z,-0.80
2019-01-31T19:02:49.939Z,-0.80
2019-01-31T19:05:18.504Z,-0.80
2019-01-31T19:07:46.784Z,-0.80
2019-01-31T19:10:15.654Z,-0.80
2019-01-31T19:12:43.931Z,-0.70
2019-01-31T19:15:15.027Z,-0.50
2019-01-31T19:17:43.322Z,-0.60
2019-01-31T19:20:19.771Z,-0.50
2019-01-31T19:22:48.561Z,-0.60
2019-01-31T19:25:18.883Z,-0.60
2019-01-31T19:27:47.293Z,-0.60
2019-01-31T19:30:27.202Z,-0.60
2019-01-31T19:32:55.761Z,-0.60
2019-01-31T19:35:24.261Z,-0.70
2019-01-31T19:38:01.444Z,-0.60
2019-01-31T19:40:25.541Z,-0.60
2019-01-31T19:42:54.212Z,-0.60
2019-01-31T19:45:28.335Z,-0.50
2019-01-31T19:47:56.748Z,-0.50
2019-01-31T19:50:25.175Z,-0.40
2019-01-31T19:52:53.634Z,-0.40
2019-01-31T19:55:22.077Z,-0.50
2019-01-31T19:57:50.437Z,-0.50
2019-01-31T20:00:21.556Z,-0.60
2019-01-31T20:02:49.842Z,1.00
2019-01-31T20:05:18.655Z,0.50
2019-01-31T20:07:46.912Z,0.20
2019-01-31T20:10:23.776Z,0.10
2019-01-31T20:12:52.047Z,0.00
2019-01-31T20:15:20.307Z,-0.20
2019-01-31T20:17:48.769Z,-0.30
2019-01-31T20:20:25.352Z,-0.30
2019-01-31T20:22:54.493Z,-0.20
2019-01-31T20:25:23.009Z,-0.30
2019-01-31T20:27:51.300Z,-0.30
2019-01-31T20:30:22.818Z,-0.20
2019-01-31T20:32:51.198Z,-0.20
2019-01-31T20:35:20.899Z,-0.30
2019-01-31T20:37:49.163Z,-0.30
2019-01-31T20:40:26.173Z,-0.10
2019-01-31T20:42:54.453Z,-0.20
2019-01-31T20:45:22.755Z,-0.10
2019-01-31T20:47:51.021Z,-0.10
2019-01-31T20:50:25.487Z,-0.20
2019-01-31T20:52:53.747Z,-0.10
2019-01-31T20:55:22.127Z,-0.10
2019-01-31T20:57:50.384Z,-0.10
2019-01-31T21:00:36.944Z,-0.10
2019-01-31T21:03:07.028Z,0.00
2019-01-31T21:05:35.305Z,0.00
2019-01-31T21:08:03.987Z,0.00
2019-01-31T21:10:32.380Z,-0.10
2019-01-31T21:13:00.651Z,-0.10
2019-01-31T21:15:28.943Z,-0.10
2019-01-31T21:17:57.215Z,-0.10
2019-01-31T21:20:26.864Z,-0.10
2019-01-31T21:22:55.269Z,-0.20
2019-01-31T21:25:23.678Z,-0.10
2019-01-31T21:27:52.085Z,-0.20
2019-01-31T21:30:22.895Z,-0.10
2019-01-31T21:32:51.162Z,-0.10
2019-01-31T21:35:20.000Z,-0.20
2019-01-31T21:37:48.873Z,-0.30
2019-01-31T21:40:18.889Z,-0.30
2019-01-31T21:42:47.159Z,-0.40
2019-01-31T21:45:18.034Z,-0.40
2019-01-31T21:47:46.328Z,-0.50
2019-01-31T21:50:17.380Z,-0.50
2019-01-31T21:52:45.659Z,-0.60
2019-01-31T21:55:14.671Z,-0.70
2019-01-31T21:57:42.930Z,-0.60
2019-01-31T22:00:16.988Z,-0.60
2019-01-31T22:02:45.312Z,0.70
2019-01-31T22:05:15.224Z,0.10
2019-01-31T22:07:43.607Z,-0.20
2019-01-31T22:10:14.126Z,-0.40
2019-01-31T22:12:42.551Z,-0.70
2019-01-31T22:15:25.454Z,-0.80
2019-01-31T22:17:53.711Z,-0.80
2019-01-31T22:20:21.974Z,-0.90
2019-01-31T22:22:50.235Z,-1.00
2019-01-31T22:25:22.454Z,-1.00
2019-01-31T22:27:50.735Z,-1.00
2019-01-31T22:30:24.657Z,-1.00
2019-01-31T22:32:52.991Z,-1.10
2019-01-31T22:35:21.289Z,-1.20
2019-01-31T22:37:49.723Z,-1.30
2019-01-31T22:40:18.919Z,-1.40
2019-01-31T22:42:47.216Z,-1.40
2019-01-31T22:45:22.890Z,-1.40
2019-01-31T22:47:51.147Z,-1.30
2019-01-31T22:50:21.066Z,-1.40
2019-01-31T22:52:49.403Z,-1.40
2019-01-31T22:55:19.545Z,-1.40
2019-01-31T22:57:47.921Z,-1.50
2019-01-31T23:00:32.568Z,-1.40
2019-01-31T23:03:00.900Z,-1.40
2019-01-31T23:05:29.184Z,-1.40
2019-01-31T23:07:57.452Z,-1.50
2019-01-31T23:10:25.761Z,-1.50
2019-01-31T23:12:54.047Z,-1.60
2019-01-31T23:15:22.308Z,-1.50
2019-01-31T23:17:50.579Z,-1.50
2019-01-31T23:20:19.139Z,-1.60
2019-01-31T23:22:47.429Z,-1.70
2019-01-31T23:25:15.771Z,-1.90
2019-01-31T23:27:44.095Z,-1.90
2019-01-31T23:30:14.819Z,-2.00
2019-01-31T23:32:43.087Z,-2.00
2019-01-31T23:35:11.348Z,-2.10
2019-01-31T23:37:39.681Z,-2.10
2019-01-31T23:40:12.321Z,-2.10
2019-01-31T23:42:40.595Z,-2.20
2019-01-31T23:45:18.005Z,-2.20
2019-01-31T23:47:48.985Z,-2.20
2019-01-31T23:50:16.279Z,-2.20
2019-01-31T23:52:44.536Z,-2.20
2019-01-31T23:55:14.524Z,-2.20
2019-01-31T23:57:42.811Z,-2.20
